Leonie — PHLE — position and weather

sailwx.info

Track history (hours):
 
Tides and Currents Weather Stations Pressure Air Temp Water Temp Dewpoint Dewpoint Depression Visibility Wind Speed Wind Dir Waves Ship Positions

Leonie

Last reported at 2017-Apr-27 10:29 UTC. Time now 2017-Apr-27 16:57 UTC.
Position N 54°37' W 005°55'.

Length 90 m; draft 5.6 m.

Type: Cargo ship. MMSI: 244772000.

Date/timePositionNaut miles runAvg speedWind from/ knotsBaromVisibWave heightAir tempDewpointWater temp
2017-Apr-27 10:29N 54°37' W 005°55'0 0.0
2017-Apr-27 01:02N 54°37' W 005°55'0 0.0
2017-Apr-27 00:57N 54°37' W 005°55'1 1.6
2017-Apr-27 00:29N 54°37' W 005°54'4 8.7
2017-Apr-27 00:00N 54°40' W 005°50'510.1
2017-Apr-26 23:30N 54°43' W 005°42'611.2
2017-Apr-26 23:00N 54°43' W 005°32'5 9.8
2017-Apr-26 22:30N 54°39' W 005°26'510.8
2017-Apr-26 22:00N 54°34' W 005°23'510.1
2017-Apr-26 21:30N 54°29' W 005°21'5 9.6
2017-Apr-26 21:00N 54°25' W 005°19'5 9.9
2017-Apr-26 20:30N 54°20' W 005°17'510.0
2017-Apr-26 20:00N 54°15' W 005°16'510.2
2017-Apr-26 19:30N 54°10' W 005°16'15610.2
2017-Apr-26 04:09N 51°34' W 005°42'1 9.3
2017-Apr-26 04:00N 51°34' W 005°40'5 9.6
2017-Apr-26 03:30N 51°31' W 005°34'5 9.3
2017-Apr-26 03:00N 51°29' W 005°28'5 9.1
2017-Apr-26 02:30N 51°26' W 005°21'4 9.1
2017-Apr-26 02:00N 51°25' W 005°14'5 9.4
2017-Apr-26 01:30N 51°24' W 005°07'5 9.9
2017-Apr-26 01:00N 51°23' W 004°59'510.3
2017-Apr-26 00:30N 51°23' W 004°51'1211.3
2017-Apr-25 23:26N 51°22' W 004°31'2713.2
2017-Apr-25 21:23N 51°22' W 003°48'2714.2
2017-Apr-25 19:30N 51°25' W 003°05'612.8
2017-Apr-25 19:00N 51°30' W 002°60'4 8.0
2017-Apr-25 18:30N 51°34' W 002°58'0 0.1
2017-Apr-25 18:00N 51°34' W 002°58'0 0.4
2017-Apr-25 17:30N 51°34' W 002°58'0 0.0
2017-Apr-25 17:00N 51°34' W 002°58'0 0.0
2017-Apr-25 16:27N 51°34' W 002°58'0 0.0
2017-Apr-25 15:57N 51°34' W 002°58'0 0.0
2017-Apr-25 15:27N 51°34' W 002°58'0 0.0
2017-Apr-25 15:00N 51°34' W 002°58'0 0.0
2017-Apr-25 14:30N 51°34' W 002°58'0 0.0
2017-Apr-25 13:30N 51°34' W 002°58'0 0.0
2017-Apr-25 13:00N 51°34' W 002°58'0 0.0
2017-Apr-25 12:30N 51°34' W 002°58'0 0.0
2017-Apr-25 12:00N 51°34' W 002°58'0 0.0
2017-Apr-25 11:27N 51°34' W 002°58'0 0.0
2017-Apr-25 10:57N 51°34' W 002°58'0 0.0
2017-Apr-25 10:03N 51°34' W 002°58'0 0.0
2017-Apr-25 09:57N 51°34' W 002°58'0 0.0
2017-Apr-25 09:30N 51°34' W 002°58'0 0.0
2017-Apr-25 09:00N 51°34' W 002°58'0 0.0
2017-Apr-25 08:30N 51°34' W 002°58'0 0.0
2017-Apr-25 08:00N 51°34' W 002°58'0 0.0
2017-Apr-25 07:30N 51°34' W 002°58'0 0.0
2017-Apr-25 07:00N 51°34' W 002°58'0 0.0
2017-Apr-25 06:30N 51°34' W 002°58'0 0.0
2017-Apr-25 06:00N 51°34' W 002°58'0 0.0
2017-Apr-25 05:30N 51°34' W 002°58'0 0.0
2017-Apr-25 05:00N 51°34' W 002°58'0 0.0
2017-Apr-25 04:30N 51°34' W 002°58'0 0.0
2017-Apr-25 04:00N 51°34' W 002°58'0 0.0
2017-Apr-25 03:30N 51°34' W 002°58'0 0.0
2017-Apr-25 03:00N 51°34' W 002°58'0 0.0
2017-Apr-25 02:30N 51°34' W 002°58'0 0.0
2017-Apr-25 02:00N 51°34' W 002°58'0 0.0
2017-Apr-25 01:30N 51°34' W 002°58'0 0.0
2017-Apr-25 01:00N 51°34' W 002°58'0 0.0
2017-Apr-25 00:30N 51°34' W 002°58'0 0.0
2017-Apr-25 00:00N 51°34' W 002°58'0 0.0
2017-Apr-24 23:30N 51°34' W 002°58'0 0.0
2017-Apr-24 23:00N 51°34' W 002°58'0 0.0
2017-Apr-24 22:30N 51°34' W 002°58'0 0.0
2017-Apr-24 22:00N 51°34' W 002°58'0 0.0
2017-Apr-24 21:30N 51°34' W 002°58'0 0.0
2017-Apr-24 21:00N 51°34' W 002°58'0 0.0
2017-Apr-24 20:30N 51°34' W 002°58'0 0.0
2017-Apr-24 20:00N 51°34' W 002°58'0 0.0
2017-Apr-24 19:30N 51°34' W 002°58'0 0.0
2017-Apr-24 19:00N 51°34' W 002°58'0 0.0
2017-Apr-24 18:30N 51°34' W 002°58'0 0.0
2017-Apr-24 18:00N 51°34' W 002°58'0 0.0
2017-Apr-24 17:30N 51°34' W 002°58'0 0.4
2017-Apr-24 17:00N 51°34' W 002°58'0 0.4
2017-Apr-24 16:30N 51°34' W 002°58'0 0.0
2017-Apr-24 15:48N 51°34' W 002°58'0 0.0
2017-Apr-24 15:27N 51°34' W 002°58'0 0.0
2017-Apr-24 13:15N 51°34' W 002°58'0 0.0
2017-Apr-24 12:57N 51°34' W 002°58'0 0.0
2017-Apr-24 12:21N 51°34' W 002°58'0 0.0
2017-Apr-24 12:00N 51°34' W 002°58'0 0.0
2017-Apr-24 11:27N 51°34' W 002°58'0 0.0
2017-Apr-24 11:00N 51°34' W 002°58'0 0.0
2017-Apr-24 10:30N 51°34' W 002°58'0 0.0
2017-Apr-24 09:54N 51°34' W 002°58'0 0.0
2017-Apr-24 09:27N 51°34' W 002°58'0 0.0
2017-Apr-24 09:00N 51°34' W 002°58'0 0.0
2017-Apr-24 08:27N 51°34' W 002°58'0 0.0
2017-Apr-24 07:42N 51°34' W 002°58'0 0.0
2017-Apr-24 07:30N 51°34' W 002°58'0 0.0
2017-Apr-24 06:33N 51°34' W 002°58'0 0.0
2017-Apr-24 06:21N 51°34' W 002°58'0 0.0
2017-Apr-24 06:00N 51°34' W 002°58'0 0.0
2017-Apr-24 05:30N 51°34' W 002°58'0 0.0
2017-Apr-24 05:00N 51°34' W 002°58'0 0.0
2017-Apr-24 04:30N 51°34' W 002°58'0 0.0
2017-Apr-24 03:48N 51°34' W 002°58'0 0.0
2017-Apr-24 03:18N 51°34' W 002°58'0 0.0
2017-Apr-24 03:00N 51°34' W 002°58'0 0.0
2017-Apr-24 02:30N 51°34' W 002°58'0 0.0
2017-Apr-24 02:00N 51°34' W 002°58'0 0.0
2017-Apr-24 01:30N 51°34' W 002°58'0 0.0
2017-Apr-24 01:00N 51°34' W 002°58'0 0.0
2017-Apr-24 00:30N 51°34' W 002°58'0 0.0
2017-Apr-24 00:00N 51°34' W 002°58'0 0.0
2017-Apr-23 23:30N 51°34' W 002°58'0 0.0
2017-Apr-23 23:00N 51°34' W 002°58'0 0.0
2017-Apr-23 22:24N 51°34' W 002°58'0 0.0
2017-Apr-23 22:00N 51°34' W 002°58'0 0.0
2017-Apr-23 21:30N 51°34' W 002°58'0 0.0
2017-Apr-23 20:42N 51°34' W 002°58'0 0.0
2017-Apr-23 18:15N 51°34' W 002°58'0 0.0
2017-Apr-23 17:57N 51°34' W 002°58'0 0.0
2017-Apr-23 17:15N 51°34' W 002°58'0 0.0
2017-Apr-23 16:57N 51°34' W 002°58'0 0.6
2017-Apr-23 16:28N 51°33' W 002°58'1 2.8
2017-Apr-23 16:00N 51°32' W 002°59'3 6.7
2017-Apr-23 15:30N 51°29' W 003°01'613.0
2017-Apr-23 15:00N 51°24' W 003°07'27 1.3
2017-Apr-22 18:18N 51°19' W 003°50'12 9.4
2017-Apr-22 17:00N 51°17' W 004°09'510.4
2017-Apr-22 16:30N 51°15' W 004°18'511.1
2017-Apr-22 16:00N 51°12' W 004°24'611.6
2017-Apr-22 15:30N 51°08' W 004°31'612.3
2017-Apr-22 15:00N 51°04' W 004°38'612.3
2017-Apr-22 14:30N 50°60' W 004°46'1212.2
2017-Apr-22 13:30N 50°51' W 004°60'612.2
2017-Apr-22 13:00N 50°47' W 005°07'612.0
2017-Apr-22 12:30N 50°43' W 005°14'612.0
2017-Apr-22 12:00N 50°39' W 005°21'611.8
2017-Apr-22 11:30N 50°35' W 005°28'611.7
2017-Apr-22 11:00N 50°31' W 005°35'611.7
2017-Apr-22 10:30N 50°27' W 005°41'611.6
2017-Apr-22 10:00N 50°23' W 005°48'611.1
2017-Apr-22 09:30N 50°19' W 005°52'1011.8
2017-Apr-22 08:41N 50°09' W 005°53'411.8
2017-Apr-22 08:20N 50°05' W 005°52'11 9.6
2017-Apr-22 07:10N 49°56' W 005°42'212.1
2017-Apr-22 06:59N 49°56' W 005°39'612.0
2017-Apr-22 06:29N 49°54' W 005°30'712.1
2017-Apr-22 05:55N 49°53' W 005°19'512.1
2017-Apr-22 05:29N 49°52' W 005°11'612.0
2017-Apr-22 05:00N 49°52' W 005°02'611.8
2017-Apr-22 04:30N 49°53' W 004°53'611.7
2017-Apr-22 04:00N 49°54' W 004°44'611.6
2017-Apr-22 03:29N 49°54' W 004°35'611.5
2017-Apr-22 02:59N 49°55' W 004°26'711.4
2017-Apr-22 02:23N 49°55' W 004°15'911.3
2017-Apr-22 01:34N 49°56' W 004°01'111.4
2017-Apr-22 01:27N 49°56' W 003°59'511.4
2017-Apr-22 01:00N 49°57' W 003°51'611.6
2017-Apr-22 00:30N 49°58' W 003°42'611.8
2017-Apr-22 00:00N 49°59' W 003°33'612.1
2017-Apr-21 23:30N 49°59' W 003°24'612.3
2017-Apr-21 23:00N 49°59' W 003°14'612.4
2017-Apr-21 22:30N 49°60' W 003°05'612.6
2017-Apr-21 22:00N 50°01' W 002°55'612.7
2017-Apr-21 21:30N 50°02' W 002°45'7511.1
2017-Apr-21 14:45N 50°22' W 000°52'310.6
2017-Apr-21 14:30N 50°23' W 000°48'1110.9
2017-Apr-21 13:30N 50°26' W 000°32'611.4
2017-Apr-21 13:00N 50°28' W 000°23'611.8
2017-Apr-21 12:30N 50°29' W 000°14'612.1
2017-Apr-21 12:00N 50°31' W 000°05'612.3
2017-Apr-21 11:30N 50°33' E 000°04'612.4
2017-Apr-21 11:00N 50°35' E 000°13'612.6
2017-Apr-21 10:30N 50°37' E 000°23'612.6
2017-Apr-21 10:00N 50°38' E 000°32'612.1
2017-Apr-21 09:30N 50°41' E 000°41'612.0
2017-Apr-21 09:00N 50°45' E 000°49'611.5
2017-Apr-21 08:30N 50°48' E 000°56'611.2
2017-Apr-21 08:00N 50°51' E 001°03'610.9
2017-Apr-21 07:30N 50°55' E 001°10'510.7
2017-Apr-21 07:00N 50°58' E 001°16'510.4
2017-Apr-21 06:30N 51°02' E 001°23'510.5
2017-Apr-21 06:00N 51°05' E 001°29'611.1
2017-Apr-21 05:30N 51°08' E 001°36'611.5
2017-Apr-21 05:00N 51°12' E 001°43'611.7
2017-Apr-21 04:30N 51°17' E 001°48'612.4
2017-Apr-21 04:00N 51°22' E 001°53'612.8
2017-Apr-21 03:30N 51°28' E 001°58'612.7
2017-Apr-21 03:00N 51°32' E 002°05'612.4
2017-Apr-21 02:30N 51°37' E 002°12'612.3
2017-Apr-21 02:00N 51°42' E 002°19'712.0
2017-Apr-21 01:24N 51°47' E 002°27'6710.4
2017-Apr-20 19:00N 52°30' E 003°50'510.9
2017-Apr-20 18:30N 52°31' E 003°59'611.3
2017-Apr-20 18:00N 52°31' E 004°08'611.2
2017-Apr-20 17:30N 52°30' E 004°17'611.3
2017-Apr-20 17:00N 52°29' E 004°26'510.7
2017-Apr-20 16:30N 52°28' E 004°35'1 2.2
2017-Apr-20 16:00N 52°28' E 004°36'0 0.0
2017-Apr-20 15:29N 52°28' E 004°36'0 0.0
2017-Apr-20 14:59N 52°28' E 004°36'0 0.0
2017-Apr-20 14:29N 52°28' E 004°36'0 0.0
2017-Apr-20 13:29N 52°28' E 004°36'0 0.0
2017-Apr-20 12:59N 52°28' E 004°36'0 0.0
2017-Apr-20 12:29N 52°28' E 004°36'0 0.0
2017-Apr-20 11:59N 52°28' E 004°36'0 0.0
2017-Apr-20 11:29N 52°28' E 004°36'0 0.0
2017-Apr-20 10:59N 52°28' E 004°36'0 0.0
2017-Apr-20 10:29N 52°28' E 004°36'0 0.0
2017-Apr-20 09:59N 52°28' E 004°36'0 0.0
2017-Apr-20 09:29N 52°28' E 004°36'0 0.0
2017-Apr-20 08:59N 52°28' E 004°36'0 0.0
2017-Apr-20 08:29N 52°28' E 004°36'0 0.0
2017-Apr-20 07:59N 52°28' E 004°36'0 0.0
2017-Apr-20 07:29N 52°28' E 004°36'0 0.0
2017-Apr-20 06:59N 52°28' E 004°36'0 0.0
2017-Apr-20 06:29N 52°28' E 004°36'0 0.0
2017-Apr-20 05:59N 52°28' E 004°36'0 0.0
2017-Apr-20 05:29N 52°28' E 004°36'0 0.0
2017-Apr-20 04:59N 52°28' E 004°36'0 0.0
2017-Apr-20 04:29N 52°28' E 004°36'0 0.0
2017-Apr-20 03:59N 52°28' E 004°36'0 0.0
2017-Apr-20 03:26N 52°28' E 004°36'0 0.0
2017-Apr-20 02:59N 52°28' E 004°36'0 0.0
2017-Apr-20 02:29N 52°28' E 004°36'0 0.0
2017-Apr-20 01:59N 52°28' E 004°36'0 0.0
2017-Apr-20 01:29N 52°28' E 004°36'0 0.0
2017-Apr-20 00:59N 52°28' E 004°36'0 0.0
2017-Apr-20 00:29N 52°28' E 004°36'0 0.0
2017-Apr-19 23:59N 52°28' E 004°36'0 0.0
2017-Apr-19 23:29N 52°28' E 004°36'0 0.0
2017-Apr-19 22:59N 52°28' E 004°36'0 0.0
2017-Apr-19 22:29N 52°28' E 004°36'0 0.1
2017-Apr-19 21:59N 52°28' E 004°36'0 0.0
2017-Apr-19 21:29N 52°28' E 004°36'0 0.0
2017-Apr-19 20:59N 52°28' E 004°36'0 0.0
2017-Apr-19 20:29N 52°28' E 004°36'0 0.0
2017-Apr-19 19:59N 52°28' E 004°36'0 0.0
2017-Apr-19 19:29N 52°28' E 004°36'0 0.0
2017-Apr-19 18:56N 52°28' E 004°36'0 0.0
2017-Apr-19 18:26N 52°28' E 004°36'0 0.0
2017-Apr-19 17:59N 52°28' E 004°36'0 0.0
2017-Apr-19 17:29N 52°28' E 004°36'0 0.0
2017-Apr-19 16:59N 52°28' E 004°36'0 0.0
2017-Apr-19 16:29N 52°28' E 004°36'0 0.0
2017-Apr-19 15:59N 52°28' E 004°36'0 0.0
2017-Apr-19 15:29N 52°28' E 004°36'0 0.0
2017-Apr-19 14:59N 52°28' E 004°36'0 0.0
2017-Apr-19 14:29N 52°28' E 004°36'0 0.0
2017-Apr-19 13:29N 52°28' E 004°36'0 0.0
2017-Apr-19 12:59N 52°28' E 004°36'0 0.0
2017-Apr-19 12:26N 52°28' E 004°36'0 0.0
2017-Apr-19 11:59N 52°28' E 004°36'0 0.0
2017-Apr-19 11:29N 52°28' E 004°36'0 0.0
2017-Apr-19 10:59N 52°28' E 004°36'0 0.0
2017-Apr-19 10:29N 52°28' E 004°36'0 0.0
2017-Apr-19 09:59N 52°28' E 004°36'0 0.0
2017-Apr-19 09:29N 52°28' E 004°36'0 0.0
2017-Apr-19 08:59N 52°28' E 004°36'0 0.0
2017-Apr-19 08:29N 52°28' E 004°36'0 0.0
2017-Apr-19 07:59N 52°28' E 004°36'0 0.1
2017-Apr-19 07:29N 52°28' E 004°36'1 1.2
2017-Apr-19 07:00N 52°28' E 004°35'0 0.8
2017-Apr-19 06:30N 52°28' E 004°36'5 5.0
2017-Apr-19 05:30N 52°26' E 004°43'4 8.9
2017-Apr-19 05:00N 52°25' E 004°50'1 2.2
2017-Apr-19 04:28N 52°24' E 004°52'0 0.0
2017-Apr-19 03:58N 52°24' E 004°52'0 0.0
2017-Apr-19 03:28N 52°24' E 004°52'0 0.0
2017-Apr-19 02:58N 52°24' E 004°52'0 0.0
2017-Apr-19 02:28N 52°24' E 004°52'0 0.0
2017-Apr-19 01:58N 52°24' E 004°52'0 0.0
2017-Apr-19 01:28N 52°24' E 004°52'0 0.0
2017-Apr-19 00:58N 52°24' E 004°52'0 0.0
2017-Apr-19 00:28N 52°24' E 004°52'0 0.0
2017-Apr-18 23:58N 52°24' E 004°52'0 0.0
2017-Apr-18 23:28N 52°24' E 004°52'0 0.0
2017-Apr-18 22:58N 52°24' E 004°52'0 0.0
2017-Apr-18 22:28N 52°24' E 004°52'0 0.0
2017-Apr-18 21:58N 52°24' E 004°52'0 0.0
2017-Apr-18 21:28N 52°24' E 004°52'0 0.0
2017-Apr-18 20:58N 52°24' E 004°52'0 0.0
2017-Apr-18 20:28N 52°24' E 004°52'0 0.0
2017-Apr-18 19:58N 52°24' E 004°52'0 0.0
2017-Apr-18 19:28N 52°24' E 004°52'0 0.0
2017-Apr-18 18:58N 52°24' E 004°52'0 0.1
2017-Apr-18 18:28N 52°24' E 004°52'0 0.0
2017-Apr-18 17:58N 52°24' E 004°52'0 0.0
2017-Apr-18 17:28N 52°24' E 004°52'0 0.0
2017-Apr-18 16:58N 52°24' E 004°52'0 0.0
2017-Apr-18 16:28N 52°24' E 004°52'1 1.4
2017-Apr-18 15:30N 52°25' E 004°50'0 0.2
2017-Apr-18 15:00N 52°25' E 004°50'0 0.0
2017-Apr-18 14:30N 52°25' E 004°50'0 0.0
2017-Apr-18 13:30N 52°25' E 004°50'0 0.0
2017-Apr-18 13:00N 52°25' E 004°50'0 0.0
2017-Apr-18 12:30N 52°25' E 004°50'0 0.0
2017-Apr-18 11:57N 52°25' E 004°50'0 0.0
2017-Apr-18 11:30N 52°25' E 004°50'0 0.1
2017-Apr-18 11:00N 52°25' E 004°50'0 0.0
2017-Apr-18 10:27N 52°25' E 004°50'0 0.0
2017-Apr-18 10:00N 52°25' E 004°50'0 0.0
2017-Apr-18 09:30N 52°25' E 004°50'0 0.0
2017-Apr-18 09:00N 52°25' E 004°50'0 0.0
2017-Apr-18 08:30N 52°25' E 004°50'0 0.0
2017-Apr-18 08:00N 52°25' E 004°50'0 0.0
2017-Apr-18 07:30N 52°25' E 004°50'0 0.0
2017-Apr-18 07:00N 52°25' E 004°50'0 0.0
2017-Apr-18 06:30N 52°25' E 004°50'0 0.0
2017-Apr-18 06:00N 52°25' E 004°50'0 0.5
2017-Apr-18 05:30N 52°25' E 004°50'1 2.3
2017-Apr-18 04:59N 52°24' E 004°52'0 0.0
2017-Apr-18 04:29N 52°24' E 004°52'0 0.0
2017-Apr-18 03:59N 52°24' E 004°52'0 0.0
2017-Apr-18 02:59N 52°24' E 004°52'0 0.0
2017-Apr-18 02:29N 52°24' E 004°52'0 0.0
2017-Apr-18 01:59N 52°24' E 004°52'0 0.0
2017-Apr-18 01:29N 52°24' E 004°52'0 0.0
2017-Apr-18 00:59N 52°24' E 004°52'0 0.0
2017-Apr-18 00:29N 52°24' E 004°52'0 0.0
2017-Apr-17 23:59N 52°24' E 004°52'0 0.0
2017-Apr-17 23:29N 52°24' E 004°52'0 0.0
2017-Apr-17 22:59N 52°24' E 004°52'0 0.0
2017-Apr-17 22:29N 52°24' E 004°52'0 0.0
2017-Apr-17 21:59N 52°24' E 004°52'0 0.0
2017-Apr-17 21:29N 52°24' E 004°52'0 0.0
2017-Apr-17 20:59N 52°24' E 004°52'0 0.0
2017-Apr-17 20:29N 52°24' E 004°52'0 0.0
2017-Apr-17 19:59N 52°24' E 004°52'0 0.0
2017-Apr-17 19:29N 52°24' E 004°52'0 0.0
2017-Apr-17 18:59N 52°24' E 004°52'0 0.0
2017-Apr-17 18:29N 52°24' E 004°52'0 0.0
2017-Apr-17 17:59N 52°24' E 004°52'0 0.0
2017-Apr-17 17:29N 52°24' E 004°52'0 0.0
2017-Apr-17 16:59N 52°24' E 004°52'0 0.0
2017-Apr-17 16:29N 52°24' E 004°52'0 0.0
2017-Apr-17 15:59N 52°24' E 004°52'0 0.0
2017-Apr-17 15:29N 52°24' E 004°52'0 0.0
2017-Apr-17 14:59N 52°24' E 004°52'0 0.0
2017-Apr-17 14:29N 52°24' E 004°52'0 0.0
2017-Apr-17 13:29N 52°24' E 004°52'0 0.0
2017-Apr-17 12:59N 52°24' E 004°52'0 0.0
2017-Apr-17 12:29N 52°24' E 004°52'0 0.0
2017-Apr-17 11:59N 52°24' E 004°52'0 0.0
2017-Apr-17 11:29N 52°24' E 004°52'0 0.0
2017-Apr-17 10:59N 52°24' E 004°52'0 0.0
2017-Apr-17 10:29N 52°24' E 004°52'  
Track history (hours):
 
Tides and Currents Weather Stations Pressure Air Temp Water Temp Dewpoint Dewpoint Depression Visibility Wind Speed Wind Dir Waves Ship Positions

Leonie

Last reported at 2017-Apr-27 10:29 UTC. Time now 2017-Apr-27 16:57 UTC.
Position N 54°37' W 005°55'.

Length 90 m; draft 5.6 m.

Type: Cargo ship. MMSI: 244772000.

Date/timePositionNaut miles runAvg speedWind from/ knotsBaromVisibWave heightAir tempDewpointWater temp
2017-Apr-27 10:29N 54°37' W 005°55'0 0.0
2017-Apr-27 01:02N 54°37' W 005°55'0 0.0
2017-Apr-27 00:57N 54°37' W 005°55'1 1.6
2017-Apr-27 00:29N 54°37' W 005°54'4 8.7
2017-Apr-27 00:00N 54°40' W 005°50'510.1
2017-Apr-26 23:30N 54°43' W 005°42'611.2
2017-Apr-26 23:00N 54°43' W 005°32'5 9.8
2017-Apr-26 22:30N 54°39' W 005°26'510.8
2017-Apr-26 22:00N 54°34' W 005°23'510.1
2017-Apr-26 21:30N 54°29' W 005°21'5 9.6
2017-Apr-26 21:00N 54°25' W 005°19'5 9.9
2017-Apr-26 20:30N 54°20' W 005°17'510.0
2017-Apr-26 20:00N 54°15' W 005°16'510.2
2017-Apr-26 19:30N 54°10' W 005°16'15610.2
2017-Apr-26 04:09N 51°34' W 005°42'1 9.3
2017-Apr-26 04:00N 51°34' W 005°40'5 9.6
2017-Apr-26 03:30N 51°31' W 005°34'5 9.3
2017-Apr-26 03:00N 51°29' W 005°28'5 9.1
2017-Apr-26 02:30N 51°26' W 005°21'4 9.1
2017-Apr-26 02:00N 51°25' W 005°14'5 9.4
2017-Apr-26 01:30N 51°24' W 005°07'5 9.9
2017-Apr-26 01:00N 51°23' W 004°59'510.3
2017-Apr-26 00:30N 51°23' W 004°51'1211.3
2017-Apr-25 23:26N 51°22' W 004°31'2713.2
2017-Apr-25 21:23N 51°22' W 003°48'2714.2
2017-Apr-25 19:30N 51°25' W 003°05'612.8
2017-Apr-25 19:00N 51°30' W 002°60'4 8.0
2017-Apr-25 18:30N 51°34' W 002°58'0 0.1
2017-Apr-25 18:00N 51°34' W 002°58'0 0.4
2017-Apr-25 17:30N 51°34' W 002°58'0 0.0
2017-Apr-25 17:00N 51°34' W 002°58'0 0.0
2017-Apr-25 16:27N 51°34' W 002°58'0 0.0
2017-Apr-25 15:57N 51°34' W 002°58'0 0.0
2017-Apr-25 15:27N 51°34' W 002°58'0 0.0
2017-Apr-25 15:00N 51°34' W 002°58'0 0.0
2017-Apr-25 14:30N 51°34' W 002°58'0 0.0
2017-Apr-25 13:30N 51°34' W 002°58'0 0.0
2017-Apr-25 13:00N 51°34' W 002°58'0 0.0
2017-Apr-25 12:30N 51°34' W 002°58'0 0.0
2017-Apr-25 12:00N 51°34' W 002°58'0 0.0
2017-Apr-25 11:27N 51°34' W 002°58'0 0.0
2017-Apr-25 10:57N 51°34' W 002°58'0 0.0
2017-Apr-25 10:03N 51°34' W 002°58'0 0.0
2017-Apr-25 09:57N 51°34' W 002°58'0 0.0
2017-Apr-25 09:30N 51°34' W 002°58'0 0.0
2017-Apr-25 09:00N 51°34' W 002°58'0 0.0
2017-Apr-25 08:30N 51°34' W 002°58'0 0.0
2017-Apr-25 08:00N 51°34' W 002°58'0 0.0
2017-Apr-25 07:30N 51°34' W 002°58'0 0.0
2017-Apr-25 07:00N 51°34' W 002°58'0 0.0
2017-Apr-25 06:30N 51°34' W 002°58'0 0.0
2017-Apr-25 06:00N 51°34' W 002°58'0 0.0
2017-Apr-25 05:30N 51°34' W 002°58'0 0.0
2017-Apr-25 05:00N 51°34' W 002°58'0 0.0
2017-Apr-25 04:30N 51°34' W 002°58'0 0.0
2017-Apr-25 04:00N 51°34' W 002°58'0 0.0
2017-Apr-25 03:30N 51°34' W 002°58'0 0.0
2017-Apr-25 03:00N 51°34' W 002°58'0 0.0
2017-Apr-25 02:30N 51°34' W 002°58'0 0.0
2017-Apr-25 02:00N 51°34' W 002°58'0 0.0
2017-Apr-25 01:30N 51°34' W 002°58'0 0.0
2017-Apr-25 01:00N 51°34' W 002°58'0 0.0
2017-Apr-25 00:30N 51°34' W 002°58'0 0.0
2017-Apr-25 00:00N 51°34' W 002°58'0 0.0
2017-Apr-24 23:30N 51°34' W 002°58'0 0.0
2017-Apr-24 23:00N 51°34' W 002°58'0 0.0
2017-Apr-24 22:30N 51°34' W 002°58'0 0.0
2017-Apr-24 22:00N 51°34' W 002°58'0 0.0
2017-Apr-24 21:30N 51°34' W 002°58'0 0.0
2017-Apr-24 21:00N 51°34' W 002°58'0 0.0
2017-Apr-24 20:30N 51°34' W 002°58'0 0.0
2017-Apr-24 20:00N 51°34' W 002°58'0 0.0
2017-Apr-24 19:30N 51°34' W 002°58'0 0.0
2017-Apr-24 19:00N 51°34' W 002°58'0 0.0
2017-Apr-24 18:30N 51°34' W 002°58'0 0.0
2017-Apr-24 18:00N 51°34' W 002°58'0 0.0
2017-Apr-24 17:30N 51°34' W 002°58'0 0.4
2017-Apr-24 17:00N 51°34' W 002°58'0 0.4
2017-Apr-24 16:30N 51°34' W 002°58'0 0.0
2017-Apr-24 15:48N 51°34' W 002°58'0 0.0
2017-Apr-24 15:27N 51°34' W 002°58'0 0.0
2017-Apr-24 13:15N 51°34' W 002°58'0 0.0
2017-Apr-24 12:57N 51°34' W 002°58'0 0.0
2017-Apr-24 12:21N 51°34' W 002°58'0 0.0
2017-Apr-24 12:00N 51°34' W 002°58'0 0.0
2017-Apr-24 11:27N 51°34' W 002°58'0 0.0
2017-Apr-24 11:00N 51°34' W 002°58'0 0.0
2017-Apr-24 10:30N 51°34' W 002°58'0 0.0
2017-Apr-24 09:54N 51°34' W 002°58'0 0.0
2017-Apr-24 09:27N 51°34' W 002°58'0 0.0
2017-Apr-24 09:00N 51°34' W 002°58'0 0.0
2017-Apr-24 08:27N 51°34' W 002°58'0 0.0
2017-Apr-24 07:42N 51°34' W 002°58'0 0.0
2017-Apr-24 07:30N 51°34' W 002°58'0 0.0
2017-Apr-24 06:33N 51°34' W 002°58'0 0.0
2017-Apr-24 06:21N 51°34' W 002°58'0 0.0
2017-Apr-24 06:00N 51°34' W 002°58'0 0.0
2017-Apr-24 05:30N 51°34' W 002°58'0 0.0
2017-Apr-24 05:00N 51°34' W 002°58'0 0.0
2017-Apr-24 04:30N 51°34' W 002°58'0 0.0
2017-Apr-24 03:48N 51°34' W 002°58'0 0.0
2017-Apr-24 03:18N 51°34' W 002°58'0 0.0
2017-Apr-24 03:00N 51°34' W 002°58'0 0.0
2017-Apr-24 02:30N 51°34' W 002°58'0 0.0
2017-Apr-24 02:00N 51°34' W 002°58'0 0.0
2017-Apr-24 01:30N 51°34' W 002°58'0 0.0
2017-Apr-24 01:00N 51°34' W 002°58'0 0.0
2017-Apr-24 00:30N 51°34' W 002°58'0 0.0
2017-Apr-24 00:00N 51°34' W 002°58'0 0.0
2017-Apr-23 23:30N 51°34' W 002°58'0 0.0
2017-Apr-23 23:00N 51°34' W 002°58'0 0.0
2017-Apr-23 22:24N 51°34' W 002°58'0 0.0
2017-Apr-23 22:00N 51°34' W 002°58'0 0.0
2017-Apr-23 21:30N 51°34' W 002°58'0 0.0
2017-Apr-23 20:42N 51°34' W 002°58'0 0.0
2017-Apr-23 18:15N 51°34' W 002°58'0 0.0
2017-Apr-23 17:57N 51°34' W 002°58'0 0.0
2017-Apr-23 17:15N 51°34' W 002°58'0 0.0
2017-Apr-23 16:57N 51°34' W 002°58'0 0.6
2017-Apr-23 16:28N 51°33' W 002°58'1 2.8
2017-Apr-23 16:00N 51°32' W 002°59'3 6.7
2017-Apr-23 15:30N 51°29' W 003°01'613.0
2017-Apr-23 15:00N 51°24' W 003°07'27 1.3
2017-Apr-22 18:18N 51°19' W 003°50'12 9.4
2017-Apr-22 17:00N 51°17' W 004°09'510.4
2017-Apr-22 16:30N 51°15' W 004°18'511.1
2017-Apr-22 16:00N 51°12' W 004°24'611.6
2017-Apr-22 15:30N 51°08' W 004°31'612.3
2017-Apr-22 15:00N 51°04' W 004°38'612.3
2017-Apr-22 14:30N 50°60' W 004°46'1212.2
2017-Apr-22 13:30N 50°51' W 004°60'612.2
2017-Apr-22 13:00N 50°47' W 005°07'612.0
2017-Apr-22 12:30N 50°43' W 005°14'612.0
2017-Apr-22 12:00N 50°39' W 005°21'611.8
2017-Apr-22 11:30N 50°35' W 005°28'611.7
2017-Apr-22 11:00N 50°31' W 005°35'611.7
2017-Apr-22 10:30N 50°27' W 005°41'611.6
2017-Apr-22 10:00N 50°23' W 005°48'611.1
2017-Apr-22 09:30N 50°19' W 005°52'1011.8
2017-Apr-22 08:41N 50°09' W 005°53'411.8
2017-Apr-22 08:20N 50°05' W 005°52'11 9.6
2017-Apr-22 07:10N 49°56' W 005°42'212.1
2017-Apr-22 06:59N 49°56' W 005°39'612.0
2017-Apr-22 06:29N 49°54' W 005°30'712.1
2017-Apr-22 05:55N 49°53' W 005°19'512.1
2017-Apr-22 05:29N 49°52' W 005°11'612.0
2017-Apr-22 05:00N 49°52' W 005°02'611.8
2017-Apr-22 04:30N 49°53' W 004°53'611.7
2017-Apr-22 04:00N 49°54' W 004°44'611.6
2017-Apr-22 03:29N 49°54' W 004°35'611.5
2017-Apr-22 02:59N 49°55' W 004°26'711.4
2017-Apr-22 02:23N 49°55' W 004°15'911.3
2017-Apr-22 01:34N 49°56' W 004°01'111.4
2017-Apr-22 01:27N 49°56' W 003°59'511.4
2017-Apr-22 01:00N 49°57' W 003°51'611.6
2017-Apr-22 00:30N 49°58' W 003°42'611.8
2017-Apr-22 00:00N 49°59' W 003°33'612.1
2017-Apr-21 23:30N 49°59' W 003°24'612.3
2017-Apr-21 23:00N 49°59' W 003°14'612.4
2017-Apr-21 22:30N 49°60' W 003°05'612.6
2017-Apr-21 22:00N 50°01' W 002°55'612.7
2017-Apr-21 21:30N 50°02' W 002°45'7511.1
2017-Apr-21 14:45N 50°22' W 000°52'310.6
2017-Apr-21 14:30N 50°23' W 000°48'1110.9
2017-Apr-21 13:30N 50°26' W 000°32'611.4
2017-Apr-21 13:00N 50°28' W 000°23'611.8
2017-Apr-21 12:30N 50°29' W 000°14'612.1
2017-Apr-21 12:00N 50°31' W 000°05'612.3
2017-Apr-21 11:30N 50°33' E 000°04'612.4
2017-Apr-21 11:00N 50°35' E 000°13'612.6
2017-Apr-21 10:30N 50°37' E 000°23'612.6
2017-Apr-21 10:00N 50°38' E 000°32'612.1
2017-Apr-21 09:30N 50°41' E 000°41'612.0
2017-Apr-21 09:00N 50°45' E 000°49'611.5
2017-Apr-21 08:30N 50°48' E 000°56'611.2
2017-Apr-21 08:00N 50°51' E 001°03'610.9
2017-Apr-21 07:30N 50°55' E 001°10'510.7
2017-Apr-21 07:00N 50°58' E 001°16'510.4
2017-Apr-21 06:30N 51°02' E 001°23'510.5
2017-Apr-21 06:00N 51°05' E 001°29'611.1
2017-Apr-21 05:30N 51°08' E 001°36'611.5
2017-Apr-21 05:00N 51°12' E 001°43'611.7
2017-Apr-21 04:30N 51°17' E 001°48'612.4
2017-Apr-21 04:00N 51°22' E 001°53'612.8
2017-Apr-21 03:30N 51°28' E 001°58'612.7
2017-Apr-21 03:00N 51°32' E 002°05'612.4
2017-Apr-21 02:30N 51°37' E 002°12'612.3
2017-Apr-21 02:00N 51°42' E 002°19'712.0
2017-Apr-21 01:24N 51°47' E 002°27'6710.4
2017-Apr-20 19:00N 52°30' E 003°50'510.9
2017-Apr-20 18:30N 52°31' E 003°59'611.3
2017-Apr-20 18:00N 52°31' E 004°08'611.2
2017-Apr-20 17:30N 52°30' E 004°17'611.3
2017-Apr-20 17:00N 52°29' E 004°26'510.7
2017-Apr-20 16:30N 52°28' E 004°35'1 2.2
2017-Apr-20 16:00N 52°28' E 004°36'0 0.0
2017-Apr-20 15:29N 52°28' E 004°36'0 0.0
2017-Apr-20 14:59N 52°28' E 004°36'0 0.0
2017-Apr-20 14:29N 52°28' E 004°36'0 0.0
2017-Apr-20 13:29N 52°28' E 004°36'0 0.0
2017-Apr-20 12:59N 52°28' E 004°36'0 0.0
2017-Apr-20 12:29N 52°28' E 004°36'0 0.0
2017-Apr-20 11:59N 52°28' E 004°36'0 0.0
2017-Apr-20 11:29N 52°28' E 004°36'0 0.0
2017-Apr-20 10:59N 52°28' E 004°36'0 0.0
2017-Apr-20 10:29N 52°28' E 004°36'0 0.0
2017-Apr-20 09:59N 52°28' E 004°36'0 0.0
2017-Apr-20 09:29N 52°28' E 004°36'0 0.0
2017-Apr-20 08:59N 52°28' E 004°36'0 0.0
2017-Apr-20 08:29N 52°28' E 004°36'0 0.0
2017-Apr-20 07:59N 52°28' E 004°36'0 0.0
2017-Apr-20 07:29N 52°28' E 004°36'0 0.0
2017-Apr-20 06:59N 52°28' E 004°36'0 0.0
2017-Apr-20 06:29N 52°28' E 004°36'0 0.0
2017-Apr-20 05:59N 52°28' E 004°36'0 0.0
2017-Apr-20 05:29N 52°28' E 004°36'0 0.0
2017-Apr-20 04:59N 52°28' E 004°36'0 0.0
2017-Apr-20 04:29N 52°28' E 004°36'0 0.0
2017-Apr-20 03:59N 52°28' E 004°36'0 0.0
2017-Apr-20 03:26N 52°28' E 004°36'0 0.0
2017-Apr-20 02:59N 52°28' E 004°36'0 0.0
2017-Apr-20 02:29N 52°28' E 004°36'0 0.0
2017-Apr-20 01:59N 52°28' E 004°36'0 0.0
2017-Apr-20 01:29N 52°28' E 004°36'0 0.0
2017-Apr-20 00:59N 52°28' E 004°36'0 0.0
2017-Apr-20 00:29N 52°28' E 004°36'0 0.0
2017-Apr-19 23:59N 52°28' E 004°36'0 0.0
2017-Apr-19 23:29N 52°28' E 004°36'0 0.0
2017-Apr-19 22:59N 52°28' E 004°36'0 0.0
2017-Apr-19 22:29N 52°28' E 004°36'0 0.1
2017-Apr-19 21:59N 52°28' E 004°36'0 0.0
2017-Apr-19 21:29N 52°28' E 004°36'0 0.0
2017-Apr-19 20:59N 52°28' E 004°36'0 0.0
2017-Apr-19 20:29N 52°28' E 004°36'0 0.0
2017-Apr-19 19:59N 52°28' E 004°36'0 0.0
2017-Apr-19 19:29N 52°28' E 004°36'0 0.0
2017-Apr-19 18:56N 52°28' E 004°36'0 0.0
2017-Apr-19 18:26N 52°28' E 004°36'0 0.0
2017-Apr-19 17:59N 52°28' E 004°36'0 0.0
2017-Apr-19 17:29N 52°28' E 004°36'0 0.0
2017-Apr-19 16:59N 52°28' E 004°36'0 0.0
2017-Apr-19 16:29N 52°28' E 004°36'0 0.0
2017-Apr-19 15:59N 52°28' E 004°36'0 0.0
2017-Apr-19 15:29N 52°28' E 004°36'0 0.0
2017-Apr-19 14:59N 52°28' E 004°36'0 0.0
2017-Apr-19 14:29N 52°28' E 004°36'0 0.0
2017-Apr-19 13:29N 52°28' E 004°36'0 0.0
2017-Apr-19 12:59N 52°28' E 004°36'0 0.0
2017-Apr-19 12:26N 52°28' E 004°36'0 0.0
2017-Apr-19 11:59N 52°28' E 004°36'0 0.0
2017-Apr-19 11:29N 52°28' E 004°36'0 0.0
2017-Apr-19 10:59N 52°28' E 004°36'0 0.0
2017-Apr-19 10:29N 52°28' E 004°36'0 0.0
2017-Apr-19 09:59N 52°28' E 004°36'0 0.0
2017-Apr-19 09:29N 52°28' E 004°36'0 0.0
2017-Apr-19 08:59N 52°28' E 004°36'0 0.0
2017-Apr-19 08:29N 52°28' E 004°36'0 0.0
2017-Apr-19 07:59N 52°28' E 004°36'0 0.1
2017-Apr-19 07:29N 52°28' E 004°36'1 1.2
2017-Apr-19 07:00N 52°28' E 004°35'0 0.8
2017-Apr-19 06:30N 52°28' E 004°36'5 5.0
2017-Apr-19 05:30N 52°26' E 004°43'4 8.9
2017-Apr-19 05:00N 52°25' E 004°50'1 2.2
2017-Apr-19 04:28N 52°24' E 004°52'0 0.0
2017-Apr-19 03:58N 52°24' E 004°52'0 0.0
2017-Apr-19 03:28N 52°24' E 004°52'0 0.0
2017-Apr-19 02:58N 52°24' E 004°52'0 0.0
2017-Apr-19 02:28N 52°24' E 004°52'0 0.0
2017-Apr-19 01:58N 52°24' E 004°52'0 0.0
2017-Apr-19 01:28N 52°24' E 004°52'0 0.0
2017-Apr-19 00:58N 52°24' E 004°52'0 0.0
2017-Apr-19 00:28N 52°24' E 004°52'0 0.0
2017-Apr-18 23:58N 52°24' E 004°52'0 0.0
2017-Apr-18 23:28N 52°24' E 004°52'0 0.0
2017-Apr-18 22:58N 52°24' E 004°52'0 0.0
2017-Apr-18 22:28N 52°24' E 004°52'0 0.0
2017-Apr-18 21:58N 52°24' E 004°52'0 0.0
2017-Apr-18 21:28N 52°24' E 004°52'0 0.0
2017-Apr-18 20:58N 52°24' E 004°52'0 0.0
2017-Apr-18 20:28N 52°24' E 004°52'0 0.0
2017-Apr-18 19:58N 52°24' E 004°52'0 0.0
2017-Apr-18 19:28N 52°24' E 004°52'0 0.0
2017-Apr-18 18:58N 52°24' E 004°52'0 0.1
2017-Apr-18 18:28N 52°24' E 004°52'0 0.0
2017-Apr-18 17:58N 52°24' E 004°52'0 0.0
2017-Apr-18 17:28N 52°24' E 004°52'0 0.0
2017-Apr-18 16:58N 52°24' E 004°52'0 0.0
2017-Apr-18 16:28N 52°24' E 004°52'1 1.4
2017-Apr-18 15:30N 52°25' E 004°50'0 0.2
2017-Apr-18 15:00N 52°25' E 004°50'0 0.0
2017-Apr-18 14:30N 52°25' E 004°50'0 0.0
2017-Apr-18 13:30N 52°25' E 004°50'0 0.0
2017-Apr-18 13:00N 52°25' E 004°50'0 0.0
2017-Apr-18 12:30N 52°25' E 004°50'0 0.0
2017-Apr-18 11:57N 52°25' E 004°50'0 0.0
2017-Apr-18 11:30N 52°25' E 004°50'0 0.1
2017-Apr-18 11:00N 52°25' E 004°50'0 0.0
2017-Apr-18 10:27N 52°25' E 004°50'0 0.0
2017-Apr-18 10:00N 52°25' E 004°50'0 0.0
2017-Apr-18 09:30N 52°25' E 004°50'0 0.0
2017-Apr-18 09:00N 52°25' E 004°50'0 0.0
2017-Apr-18 08:30N 52°25' E 004°50'0 0.0
2017-Apr-18 08:00N 52°25' E 004°50'0 0.0
2017-Apr-18 07:30N 52°25' E 004°50'0 0.0
2017-Apr-18 07:00N 52°25' E 004°50'0 0.0
2017-Apr-18 06:30N 52°25' E 004°50'0 0.0
2017-Apr-18 06:00N 52°25' E 004°50'0 0.5
2017-Apr-18 05:30N 52°25' E 004°50'1 2.3
2017-Apr-18 04:59N 52°24' E 004°52'0 0.0
2017-Apr-18 04:29N 52°24' E 004°52'0 0.0
2017-Apr-18 03:59N 52°24' E 004°52'0 0.0
2017-Apr-18 02:59N 52°24' E 004°52'0 0.0
2017-Apr-18 02:29N 52°24' E 004°52'0 0.0
2017-Apr-18 01:59N 52°24' E 004°52'0 0.0
2017-Apr-18 01:29N 52°24' E 004°52'0 0.0
2017-Apr-18 00:59N 52°24' E 004°52'0 0.0
2017-Apr-18 00:29N 52°24' E 004°52'0 0.0
2017-Apr-17 23:59N 52°24' E 004°52'0 0.0
2017-Apr-17 23:29N 52°24' E 004°52'0 0.0
2017-Apr-17 22:59N 52°24' E 004°52'0 0.0
2017-Apr-17 22:29N 52°24' E 004°52'0 0.0
2017-Apr-17 21:59N 52°24' E 004°52'0 0.0
2017-Apr-17 21:29N 52°24' E 004°52'0 0.0
2017-Apr-17 20:59N 52°24' E 004°52'0 0.0
2017-Apr-17 20:29N 52°24' E 004°52'0 0.0
2017-Apr-17 19:59N 52°24' E 004°52'0 0.0
2017-Apr-17 19:29N 52°24' E 004°52'0 0.0
2017-Apr-17 18:59N 52°24' E 004°52'0 0.0
2017-Apr-17 18:29N 52°24' E 004°52'0 0.0
2017-Apr-17 17:59N 52°24' E 004°52'0 0.0
2017-Apr-17 17:29N 52°24' E 004°52'0 0.0
2017-Apr-17 16:59N 52°24' E 004°52'0 0.0
2017-Apr-17 16:29N 52°24' E 004°52'0 0.0
2017-Apr-17 15:59N 52°24' E 004°52'0 0.0
2017-Apr-17 15:29N 52°24' E 004°52'0 0.0
2017-Apr-17 14:59N 52°24' E 004°52'0 0.0
2017-Apr-17 14:29N 52°24' E 004°52'0 0.0
2017-Apr-17 13:29N 52°24' E 004°52'0 0.0
2017-Apr-17 12:59N 52°24' E 004°52'0 0.0
2017-Apr-17 12:29N 52°24' E 004°52'0 0.0
2017-Apr-17 11:59N 52°24' E 004°52'0 0.0
2017-Apr-17 11:29N 52°24' E 004°52'0 0.0
2017-Apr-17 10:59N 52°24' E 004°52'0 0.0
2017-Apr-17 10:29N 52°24' E 004°52'  

Dump ship's entire track history